Time;durP1;ratioP1;P1;durP2;ratioP2;P2;SDS_P1;SDS_P2;PMS_P1;PMS_P2;Temp;Humidity;BMP_temperature;BMP_pressure;BME280_temperature;BME280_humidity;BME280_pressure;Samples;Min_cycle;Max_cycle;Signal;HPM_P1;HPM_P2
2023/05/21 00:00:40;;;;;;;42.33;32.00;;;13.80;99.90;;;;;;2103942;28;20035;-79
2023/05/21 00:01:41;;;;;;;42.00;32.65;;;13.80;99.90;;;;;;2101193;28;20036;-80
2023/05/21 00:02:41;;;;;;;42.95;32.13;;;13.80;99.90;;;;;;2087294;28;20645;-80
2023/05/21 00:03:44;;;;;;;40.65;31.33;;;13.70;99.90;;;;;;2103014;28;20117;-80
2023/05/21 00:04:45;;;;;;;41.22;31.73;;;13.70;99.90;;;;;;2103980;28;20040;-80
2023/05/21 00:05:46;;;;;;;40.03;30.52;;;13.70;99.90;;;;;;2103849;28;20075;-80
2023/05/21 00:06:46;;;;;;;40.10;30.80;;;13.70;99.90;;;;;;2102651;28;20032;-80
2023/05/21 00:07:47;;;;;;;43.88;32.33;;;13.70;99.90;;;;;;2114972;27;20075;-79
2023/05/21 00:08:47;;;;;;;40.13;31.15;;;13.70;99.90;;;;;;2099893;28;20036;-79
2023/05/21 00:09:48;;;;;;;40.00;30.38;;;13.70;99.90;;;;;;2103941;28;20039;-79
2023/05/21 00:10:48;;;;;;;40.90;30.70;;;13.70;99.90;;;;;;2112932;28;20024;-79
2023/05/21 00:11:49;;;;;;;38.85;30.83;;;13.70;99.90;;;;;;2111158;28;20678;-80
2023/05/21 00:12:50;;;;;;;40.50;30.02;;;13.70;99.90;;;;;;2112712;28;20028;-79
2023/05/21 00:13:50;;;;;;;44.67;32.75;;;13.70;99.90;;;;;;2112866;28;20611;-80
2023/05/21 00:14:51;;;;;;;39.55;30.77;;;13.70;99.90;;;;;;2112643;28;20501;-79
2023/05/21 00:15:51;;;;;;;40.90;31.77;;;13.60;99.90;;;;;;2112969;28;20027;-80
2023/05/21 00:16:52;;;;;;;40.50;31.13;;;13.60;99.90;;;;;;2109364;28;20162;-80
2023/05/21 00:17:52;;;;;;;40.67;30.70;;;13.60;99.90;;;;;;2104578;28;20444;-80
2023/05/21 00:18:54;;;;;;;40.30;31.38;;;13.60;99.90;;;;;;2112027;28;20597;-81
2023/05/21 00:19:55;;;;;;;40.60;30.40;;;13.60;99.90;;;;;;2112791;28;20015;-81
2023/05/21 00:20:56;;;;;;;42.90;32.42;;;13.60;99.90;;;;;;2103369;28;20673;-81
2023/05/21 00:21:57;;;;;;;40.22;31.70;;;13.60;99.90;;;;;;2102048;28;20024;-81
2023/05/21 00:22:58;;;;;;;42.67;31.77;;;13.60;99.90;;;;;;2103816;28;20502;-82
2023/05/21 00:23:59;;;;;;;40.10;31.00;;;13.60;99.90;;;;;;2103702;28;20115;-81
2023/05/21 00:24:59;;;;;;;45.63;32.53;;;13.60;99.90;;;;;;2103473;28;20030;-81
2023/05/21 00:26:00;;;;;;;42.53;32.65;;;13.60;99.90;;;;;;2103615;28;20036;-82
2023/05/21 00:27:00;;;;;;;40.70;31.35;;;13.50;99.90;;;;;;2110973;28;20446;-81
2023/05/21 00:28:01;;;;;;;39.40;30.83;;;13.60;99.90;;;;;;2112735;28;20036;-81
2023/05/21 00:29:02;;;;;;;40.58;31.25;;;13.50;99.90;;;;;;2112537;28;20020;-79
2023/05/21 00:30:04;;;;;;;41.72;32.03;;;13.50;99.90;;;;;;2103406;28;20557;-80
2023/05/21 00:31:05;;;;;;;40.70;30.95;;;13.50;99.90;;;;;;2103709;28;20024;-80
2023/05/21 00:32:05;;;;;;;42.70;32.25;;;13.50;99.90;;;;;;2098214;28;20036;-80
2023/05/21 00:33:09;;;;;;;43.70;32.55;;;13.50;99.90;;;;;;2102871;28;20020;-80
2023/05/21 00:34:09;;;;;;;45.60;32.45;;;13.50;99.90;;;;;;2095088;28;20021;-80
2023/05/21 00:35:10;;;;;;;41.42;31.52;;;13.50;99.90;;;;;;2095050;28;20074;-80
2023/05/21 00:36:13;;;;;;;42.38;30.92;;;13.40;99.90;;;;;;2095524;28;20032;-80
2023/05/21 00:37:14;;;;;;;40.20;30.67;;;13.40;99.90;;;;;;2088894;28;20033;-81
2023/05/21 00:38:17;;;;;;;40.40;30.80;;;13.50;99.90;;;;;;2095139;28;20033;-80
2023/05/21 00:39:17;;;;;;;39.78;30.38;;;13.50;99.90;;;;;;2103656;28;20062;-80
2023/05/21 00:40:18;;;;;;;42.50;30.90;;;13.40;99.90;;;;;;2094857;28;20697;-71
2023/05/21 00:41:21;;;;;;;39.83;30.17;;;13.40;99.90;;;;;;2087257;28;20476;-72
2023/05/21 00:42:26;;;;;;;41.55;31.25;;;13.40;99.90;;;;;;2095915;28;20037;-79
2023/05/21 00:43:26;;;;;;;40.67;30.48;;;13.40;99.90;;;;;;2103397;28;20105;-72
2023/05/21 00:44:33;;;;;;;41.03;30.30;;;13.40;99.90;;;;;;2094923;28;20032;-73
2023/05/21 00:45:35;;;;;;;40.20;30.83;;;13.40;99.90;;;;;;2103549;28;20049;-74
2023/05/21 00:46:36;;;;;;;40.35;31.40;;;13.40;99.90;;;;;;2103313;28;20039;-74
2023/05/21 00:47:38;;;;;;;40.70;31.05;;;13.40;99.90;;;;;;2101440;28;20422;-73
2023/05/21 00:48:39;;;;;;;41.47;31.48;;;13.40;99.90;;;;;;2095145;28;20020;-74
2023/05/21 00:49:40;;;;;;;43.50;32.35;;;13.40;99.90;;;;;;2086421;28;20041;-73
2023/05/21 00:50:40;;;;;;;40.25;31.55;;;13.40;99.90;;;;;;2086465;28;20053;-74
2023/05/21 00:51:44;;;;;;;42.53;32.33;;;13.40;99.90;;;;;;2101474;28;20032;-74
2023/05/21 00:52:44;;;;;;;42.30;32.60;;;13.40;99.90;;;;;;2112503;28;20054;-74
2023/05/21 00:53:47;;;;;;;43.50;32.22;;;13.40;99.90;;;;;;2112484;28;20028;-74
2023/05/21 00:54:49;;;;;;;44.33;32.60;;;13.40;99.90;;;;;;2103200;28;20028;-74
2023/05/21 00:55:50;;;;;;;41.80;31.85;;;13.40;99.90;;;;;;2103330;28;20074;-74
2023/05/21 00:56:51;;;;;;;39.45;30.67;;;13.40;99.90;;;;;;2101253;28;20105;-73
2023/05/21 00:57:52;;;;;;;40.92;30.90;;;13.40;99.90;;;;;;2103595;28;20020;-73
2023/05/21 00:58:56;;;;;;;40.03;30.42;;;13.40;99.90;;;;;;2103253;28;20107;-74
2023/05/21 00:59:56;;;;;;;41.42;30.55;;;13.40;99.90;;;;;;2112262;28;20046;-74
2023/05/21 01:01:02;;;;;;;39.00;30.58;;;13.40;99.90;;;;;;2103190;28;20111;-74
2023/05/21 01:02:04;;;;;;;39.70;30.75;;;13.40;99.90;;;;;;2093747;28;20028;-73
2023/05/21 01:03:05;;;;;;;39.50;30.00;;;13.40;99.90;;;;;;2095039;28;20500;-73
2023/05/21 01:04:05;;;;;;;39.88;30.55;;;13.40;99.90;;;;;;2103388;28;20077;-73
2023/05/21 01:05:06;;;;;;;40.33;31.35;;;13.40;99.90;;;;;;2102492;28;20027;-73
2023/05/21 01:06:08;;;;;;;41.15;30.00;;;13.30;99.90;;;;;;2103434;28;20031;-73
2023/05/21 01:07:09;;;;;;;41.38;30.70;;;13.30;99.90;;;;;;2101321;28;20846;-73
2023/05/21 01:08:10;;;;;;;41.92;31.25;;;13.30;99.90;;;;;;2107588;28;20031;-73
2023/05/21 01:09:10;;;;;;;42.58;32.67;;;13.30;99.90;;;;;;2094858;28;20024;-73
2023/05/21 01:10:11;;;;;;;41.60;32.38;;;13.30;99.90;;;;;;2094696;28;20063;-73
2023/05/21 01:11:13;;;;;;;43.15;32.75;;;13.30;99.90;;;;;;2096639;28;20021;-73
2023/05/21 01:12:14;;;;;;;41.42;32.03;;;13.30;99.90;;;;;;2101334;28;20024;-73
2023/05/21 01:13:16;;;;;;;44.40;32.35;;;13.30;99.90;;;;;;2094647;28;20035;-73
2023/05/21 01:14:18;;;;;;;42.85;32.95;;;13.30;99.90;;;;;;2103216;28;20088;-74
2023/05/21 01:15:19;;;;;;;40.33;31.33;;;13.20;99.90;;;;;;2103266;28;20097;-74
2023/05/21 01:16:20;;;;;;;41.83;30.75;;;13.20;99.90;;;;;;2103102;28;20070;-73
2023/05/21 01:17:23;;;;;;;43.35;32.15;;;13.20;99.90;;;;;;2095853;28;20044;-72
2023/05/21 01:18:24;;;;;;;41.33;31.88;;;13.20;99.90;;;;;;2112066;28;20162;-73
2023/05/21 01:19:25;;;;;;;43.17;33.08;;;13.20;99.90;;;;;;2103238;28;20035;-73
2023/05/21 01:20:29;;;;;;;43.70;32.83;;;13.20;99.90;;;;;;2094604;28;20718;-73
2023/05/21 01:21:34;;;;;;;40.25;31.40;;;13.20;99.90;;;;;;2086996;28;20112;-73
2023/05/21 01:22:35;;;;;;;40.50;31.13;;;13.20;99.90;;;;;;2093569;28;20151;-73
2023/05/21 01:23:36;;;;;;;41.28;31.52;;;13.20;99.90;;;;;;2102895;28;20411;-73
2023/05/21 01:24:37;;;;;;;41.50;31.45;;;13.20;99.90;;;;;;2094993;28;20043;-73
2023/05/21 01:25:37;;;;;;;41.20;31.48;;;13.20;99.90;;;;;;2086192;28;20456;-73
2023/05/21 01:26:41;;;;;;;45.40;32.88;;;13.20;99.90;;;;;;2094170;28;20036;-73
2023/05/21 01:27:41;;;;;;;42.38;32.10;;;13.20;99.90;;;;;;2086978;28;20032;-73
2023/05/21 01:28:43;;;;;;;43.13;31.75;;;13.20;99.90;;;;;;2102722;28;20028;-73
2023/05/21 01:29:44;;;;;;;41.25;31.38;;;13.20;99.90;;;;;;2112128;28;20035;-73
2023/05/21 01:30:45;;;;;;;40.13;31.17;;;13.10;99.90;;;;;;2112345;28;20027;-72
2023/05/21 01:32:15;;;;;;;43.40;32.40;;;13.20;99.90;;;;;;2110035;28;20039;-73
2023/05/21 01:33:32;;;;;;;44.55;32.25;;;13.10;99.90;;;;;;2103001;28;20059;-73
2023/05/21 01:34:56;;;;;;;41.33;31.50;;;13.10;99.90;;;;;;2096858;28;20033;-73
2023/05/21 01:36:07;;;;;;;40.97;30.90;;;13.10;99.90;;;;;;2084417;28;20109;-73
2023/05/21 01:37:25;;;;;;;41.00;30.77;;;13.10;99.90;;;;;;2097443;28;20469;-75
2023/05/21 01:38:53;;;;;;;41.35;31.38;;;13.10;99.90;;;;;;2092556;28;20474;-73
2023/05/21 01:39:58;;;;;;;42.17;31.85;;;13.10;99.90;;;;;;2089858;28;20395;-74
2023/05/21 01:41:05;;;;;;;41.63;31.35;;;13.10;99.90;;;;;;2094856;28;20127;-73
2023/05/21 01:42:09;;;;;;;42.75;31.58;;;13.10;99.90;;;;;;2102086;28;20057;-74
2023/05/21 01:43:11;;;;;;;42.97;31.90;;;13.10;99.90;;;;;;2102973;28;20039;-73
2023/05/21 01:44:13;;;;;;;40.97;31.63;;;13.10;99.90;;;;;;2094868;28;20028;-73
2023/05/21 01:45:16;;;;;;;42.28;31.75;;;13.10;99.90;;;;;;2094860;28;20111;-73
2023/05/21 01:46:22;;;;;;;42.72;31.98;;;13.10;99.90;;;;;;2101412;28;20074;-74
2023/05/21 01:47:24;;;;;;;43.78;32.47;;;13.10;99.90;;;;;;2094864;28;20029;-73
2023/05/21 01:48:28;;;;;;;43.00;32.05;;;13.10;99.90;;;;;;2103410;28;20030;-73
2023/05/21 01:49:29;;;;;;;42.38;32.25;;;13.10;99.90;;;;;;2094702;28;20120;-74
2023/05/21 01:50:31;;;;;;;42.92;31.17;;;13.10;99.90;;;;;;2094787;28;20062;-73
2023/05/21 01:51:32;;;;;;;44.80;33.30;;;13.10;99.90;;;;;;2100850;28;20028;-73
2023/05/21 01:52:33;;;;;;;42.22;32.08;;;13.10;99.90;;;;;;2112384;28;20032;-73
2023/05/21 01:53:33;;;;;;;40.03;31.00;;;13.10;99.90;;;;;;2112195;28;20019;-73
2023/05/21 01:54:34;;;;;;;41.92;31.02;;;13.10;99.90;;;;;;2103100;28;20521;-74
2023/05/21 01:55:38;;;;;;;41.75;31.88;;;13.10;99.90;;;;;;2086453;28;20087;-73
2023/05/21 01:56:39;;;;;;;42.97;32.35;;;13.10;99.90;;;;;;2082556;28;20025;-73
2023/05/21 01:57:40;;;;;;;43.72;31.92;;;13.10;99.90;;;;;;2094154;28;20401;-74
2023/05/21 01:58:40;;;;;;;41.53;32.25;;;13.10;99.90;;;;;;2094669;28;20049;-73
2023/05/21 01:59:43;;;;;;;41.35;32.03;;;13.10;99.90;;;;;;2094559;28;20054;-74
2023/05/21 02:00:46;;;;;;;42.28;32.20;;;13.00;99.90;;;;;;2103278;28;20118;-74
2023/05/21 02:01:47;;;;;;;41.50;31.02;;;13.00;99.90;;;;;;2089007;28;20036;-73
2023/05/21 02:02:48;;;;;;;41.85;31.67;;;13.10;99.90;;;;;;2094331;28;20029;-73
2023/05/21 02:03:49;;;;;;;42.53;31.15;;;13.00;99.90;;;;;;2095121;28;20561;-73
2023/05/21 02:04:50;;;;;;;40.90;31.45;;;13.10;99.90;;;;;;2094788;28;20027;-73
2023/05/21 02:05:51;;;;;;;42.83;31.88;;;13.00;99.90;;;;;;2103002;28;20039;-74
2023/05/21 02:06:53;;;;;;;42.80;31.98;;;13.10;99.90;;;;;;2092844;28;20135;-72
2023/05/21 02:07:54;;;;;;;42.30;31.80;;;13.00;99.90;;;;;;2101323;28;20035;-72
2023/05/21 02:08:55;;;;;;;42.42;31.75;;;13.00;99.90;;;;;;2095706;28;20070;-74
2023/05/21 02:09:56;;;;;;;40.00;31.00;;;13.00;99.90;;;;;;2096495;28;20028;-73
2023/05/21 02:10:56;;;;;;;40.88;31.27;;;13.00;99.90;;;;;;2105588;28;20032;-73
2023/05/21 02:11:57;;;;;;;41.55;31.45;;;13.10;99.90;;;;;;2101898;28;20025;-73
2023/05/21 02:12:58;;;;;;;40.28;31.27;;;13.00;99.90;;;;;;2103930;28;20396;-74
2023/05/21 02:13:59;;;;;;;41.50;32.00;;;13.00;99.90;;;;;;2113251;28;20023;-74
2023/05/21 02:15:01;;;;;;;41.75;30.85;;;13.00;99.90;;;;;;2104741;28;20069;-74
2023/05/21 02:16:02;;;;;;;43.10;33.00;;;13.00;99.90;;;;;;2104937;28;20020;-74
2023/05/21 02:17:03;;;;;;;43.47;33.35;;;13.00;99.90;;;;;;2103765;28;20024;-73
2023/05/21 02:18:04;;;;;;;44.83;32.50;;;13.00;99.90;;;;;;2096711;28;20025;-74
2023/05/21 02:19:05;;;;;;;41.35;31.88;;;13.00;99.90;;;;;;2096293;28;20656;-73
2023/05/21 02:20:15;;;;;;;43.30;31.70;;;13.00;99.90;;;;;;2095913;28;20032;-73
2023/05/21 02:21:16;;;;;;;39.80;30.63;;;13.00;99.90;;;;;;2095137;28;20507;-75
2023/05/21 02:22:16;;;;;;;41.42;31.65;;;13.00;99.90;;;;;;2087738;28;20040;-74
2023/05/21 02:23:17;;;;;;;41.83;31.27;;;13.00;99.90;;;;;;2103932;28;20111;-74
2023/05/21 02:24:18;;;;;;;42.05;31.65;;;13.00;99.90;;;;;;2113453;28;20042;-74
2023/05/21 02:25:18;;;;;;;44.05;33.13;;;13.00;99.90;;;;;;2104516;28;20047;-73
2023/05/21 02:26:21;;;;;;;43.58;32.28;;;13.00;99.90;;;;;;2093915;28;20047;-73
2023/05/21 02:27:22;;;;;;;42.55;31.33;;;13.00;99.90;;;;;;2104861;28;20020;-74
2023/05/21 02:28:22;;;;;;;41.00;31.45;;;13.00;99.90;;;;;;2113534;28;20683;-73
2023/05/21 02:29:23;;;;;;;42.47;31.70;;;12.90;99.90;;;;;;2104212;28;20032;-73
2023/05/21 02:30:24;;;;;;;41.17;31.20;;;13.00;99.90;;;;;;2096005;28;20039;-73
2023/05/21 02:31:24;;;;;;;41.47;31.27;;;12.90;99.90;;;;;;2085804;28;20047;-73
2023/05/21 02:32:25;;;;;;;41.25;31.85;;;12.90;99.90;;;;;;2079844;28;20025;-73
2023/05/21 02:33:25;;;;;;;43.63;32.20;;;12.90;99.90;;;;;;2103761;28;20073;-73
2023/05/21 02:34:29;;;;;;;42.67;31.88;;;12.90;99.90;;;;;;2104154;28;20666;-73
2023/05/21 02:35:31;;;;;;;41.25;30.88;;;12.90;99.90;;;;;;2088200;28;20039;-73
2023/05/21 02:36:32;;;;;;;42.25;31.35;;;12.90;99.90;;;;;;2094275;28;20027;-74
2023/05/21 02:37:33;;;;;;;41.67;31.30;;;12.90;99.90;;;;;;2113542;28;20504;-73
2023/05/21 02:38:34;;;;;;;42.75;31.98;;;12.90;99.90;;;;;;2113242;28;20027;-73
2023/05/21 02:39:35;;;;;;;38.55;30.30;;;12.80;99.90;;;;;;2104240;28;20047;-73
2023/05/21 02:40:35;;;;;;;40.03;30.98;;;12.80;99.90;;;;;;2096029;28;20063;-73
2023/05/21 02:41:36;;;;;;;40.33;31.00;;;12.80;99.90;;;;;;2097062;28;20059;-73
2023/05/21 02:42:38;;;;;;;46.20;32.08;;;12.80;99.90;;;;;;2122147;27;20027;-73
2023/05/21 02:43:39;;;;;;;44.00;32.20;;;12.80;99.90;;;;;;2104564;28;20097;-73
2023/05/21 02:44:40;;;;;;;43.15;31.67;;;12.80;99.90;;;;;;2095859;28;20103;-73
2023/05/21 02:45:41;;;;;;;42.83;31.92;;;12.70;99.90;;;;;;2095826;28;20526;-73
2023/05/21 02:46:42;;;;;;;43.03;31.55;;;12.70;99.90;;;;;;2094051;28;20079;-72
2023/05/21 02:47:43;;;;;;;41.70;31.70;;;12.70;99.90;;;;;;2087692;28;20162;-72
2023/05/21 02:48:43;;;;;;;42.53;32.13;;;12.70;99.90;;;;;;2095896;28;20135;-72
2023/05/21 02:49:44;;;;;;;43.65;32.35;;;12.70;99.90;;;;;;2103991;28;20032;-73
2023/05/21 02:50:45;;;;;;;41.35;31.80;;;12.70;99.90;;;;;;2096129;28;20028;-73
2023/05/21 02:51:45;;;;;;;41.67;31.92;;;12.70;99.90;;;;;;2093914;28;20078;-73
2023/05/21 02:52:46;;;;;;;43.15;31.77;;;12.70;99.90;;;;;;2095708;28;20040;-73
2023/05/21 02:53:47;;;;;;;42.78;32.28;;;12.70;99.90;;;;;;2087609;28;20025;-74
2023/05/21 02:54:47;;;;;;;42.80;32.35;;;12.70;99.90;;;;;;2096093;28;20056;-74
2023/05/21 02:55:48;;;;;;;42.35;31.48;;;12.60;99.90;;;;;;2103394;28;20119;-73
2023/05/21 02:56:48;;;;;;;42.85;31.63;;;12.70;99.90;;;;;;2093777;28;20119;-74
2023/05/21 02:57:49;;;;;;;41.80;32.00;;;12.60;99.90;;;;;;2097669;28;20036;-72
2023/05/21 02:58:50;;;;;;;42.97;32.25;;;12.70;99.90;;;;;;2104171;28;20058;-73
2023/05/21 02:59:51;;;;;;;41.08;31.40;;;12.60;99.90;;;;;;2095747;28;20119;-73
2023/05/21 03:00:52;;;;;;;40.83;32.30;;;12.60;99.90;;;;;;2098350;28;20040;-73
2023/05/21 03:01:53;;;;;;;42.55;31.48;;;12.60;99.90;;;;;;2093863;28;20482;-73
2023/05/21 03:02:53;;;;;;;41.97;32.42;;;12.60;99.90;;;;;;2096018;28;20021;-73
2023/05/21 03:03:54;;;;;;;40.50;31.27;;;12.60;99.90;;;;;;2095855;28;20461;-73
2023/05/21 03:04:55;;;;;;;43.15;32.20;;;12.60;99.90;;;;;;2093078;28;20411;-73
2023/05/21 03:05:57;;;;;;;42.35;32.28;;;12.60;99.90;;;;;;2087416;28;20496;-73
2023/05/21 03:07:00;;;;;;;43.92;33.00;;;12.60;99.90;;;;;;2093967;28;20119;-73
2023/05/21 03:08:01;;;;;;;41.80;32.47;;;12.60;99.90;;;;;;2103700;28;20473;-72
2023/05/21 03:09:04;;;;;;;43.28;31.85;;;12.50;99.90;;;;;;2095610;28;20028;-73
2023/05/21 03:10:05;;;;;;;43.92;33.58;;;12.50;99.90;;;;;;2104328;28;20020;-73
2023/05/21 03:11:06;;;;;;;42.92;32.15;;;12.50;99.90;;;;;;2103788;28;20171;-72
2023/05/21 03:12:07;;;;;;;40.95;31.27;;;12.50;99.90;;;;;;2093552;28;20404;-73
2023/05/21 03:13:08;;;;;;;40.95;31.42;;;12.60;99.90;;;;;;2095840;28;20119;-74
2023/05/21 03:14:09;;;;;;;43.92;31.85;;;12.50;99.90;;;;;;2103813;28;20110;-73
2023/05/21 03:15:10;;;;;;;43.53;31.73;;;12.60;99.90;;;;;;2095656;28;20027;-73
2023/05/21 03:16:11;;;;;;;41.90;32.00;;;12.50;99.90;;;;;;2095642;28;20079;-73
2023/05/21 03:17:14;;;;;;;42.85;33.17;;;12.60;99.90;;;;;;2094637;28;20078;-73
2023/05/21 03:18:15;;;;;;;42.70;33.05;;;12.50;99.90;;;;;;2095639;28;20200;-73
2023/05/21 03:19:15;;;;;;;43.65;32.88;;;12.60;99.90;;;;;;2095555;28;20039;-73
2023/05/21 03:20:17;;;;;;;44.45;31.88;;;12.60;99.90;;;;;;2096018;28;20115;-74
2023/05/21 03:21:21;;;;;;;41.20;31.67;;;12.60;99.90;;;;;;2102407;28;20105;-73
2023/05/21 03:22:21;;;;;;;41.90;31.15;;;12.60;99.90;;;;;;2113184;28;20054;-74
2023/05/21 03:23:23;;;;;;;42.75;32.08;;;12.60;99.90;;;;;;2104251;28;20027;-73
2023/05/21 03:24:23;;;;;;;41.67;31.60;;;12.60;99.90;;;;;;2103841;28;20028;-73
2023/05/21 03:25:24;;;;;;;43.67;32.53;;;12.60;99.90;;;;;;2095473;28;20052;-73
2023/05/21 03:26:26;;;;;;;43.47;31.98;;;12.60;99.90;;;;;;2093796;28;20099;-73
2023/05/21 03:27:27;;;;;;;41.25;31.33;;;12.60;99.90;;;;;;2095863;28;20647;-72
2023/05/21 03:28:28;;;;;;;42.25;30.35;;;12.60;99.90;;;;;;2094302;28;20021;-72
2023/05/21 03:29:30;;;;;;;40.53;30.92;;;12.60;99.90;;;;;;2087462;28;20401;-73
2023/05/21 03:30:30;;;;;;;43.35;31.63;;;12.60;99.90;;;;;;2103761;28;20066;-72
2023/05/21 03:32:09;;;;;;;43.28;31.48;;;12.60;99.90;;;;;;2093322;28;20042;-72
2023/05/21 03:33:12;;;;;;;43.60;31.88;;;12.70;99.90;;;;;;2104051;28;20125;-73
2023/05/21 03:34:14;;;;;;;41.97;31.77;;;12.60;99.90;;;;;;2103728;28;20549;-72
2023/05/21 03:35:15;;;;;;;43.30;31.65;;;12.60;99.90;;;;;;2095382;28;20139;-72
2023/05/21 03:36:16;;;;;;;42.55;31.65;;;12.60;99.90;;;;;;2101859;28;20070;-73
2023/05/21 03:37:16;;;;;;;43.03;31.55;;;12.70;99.90;;;;;;2095774;28;20024;-73
2023/05/21 03:38:17;;;;;;;41.83;31.30;;;12.70;99.90;;;;;;2103122;28;20032;-73
2023/05/21 03:39:18;;;;;;;41.88;30.73;;;12.70;99.90;;;;;;2095613;28;20124;-74
2023/05/21 03:40:18;;;;;;;41.95;32.25;;;12.70;99.90;;;;;;2104070;28;20020;-74
2023/05/21 03:41:20;;;;;;;42.92;31.98;;;12.70;99.90;;;;;;2111370;28;20085;-74
2023/05/21 03:42:24;;;;;;;40.15;31.70;;;12.70;99.90;;;;;;2104204;28;20551;-73
2023/05/21 03:43:28;;;;;;;40.78;30.63;;;12.70;99.90;;;;;;2095635;28;20067;-73
2023/05/21 03:44:31;;;;;;;42.15;31.05;;;12.70;99.90;;;;;;2094867;28;20035;-73
2023/05/21 03:45:42;;;;;;;40.00;30.42;;;12.70;99.90;;;;;;2091104;28;20028;-73
2023/05/21 03:47:12;;;;;;;39.83;30.20;;;12.80;99.90;;;;;;2106147;28;20123;-73
2023/05/21 03:48:12;;;;;;;39.83;30.85;;;12.80;99.90;;;;;;2112760;28;20035;-74
2023/05/21 03:49:13;;;;;;;39.90;30.50;;;12.80;99.90;;;;;;2103650;28;20020;-73
2023/05/21 03:50:14;;;;;;;40.38;31.45;;;12.80;99.90;;;;;;2095519;28;20024;-73
2023/05/21 03:51:16;;;;;;;39.00;30.20;;;12.80;99.90;;;;;;2094051;28;20048;-75
2023/05/21 03:52:17;;;;;;;41.10;30.70;;;12.80;99.90;;;;;;2087282;28;20628;-73
2023/05/21 03:53:18;;;;;;;41.72;31.85;;;12.80;99.90;;;;;;2094090;28;20028;-71
2023/05/21 03:54:18;;;;;;;40.17;31.38;;;12.90;99.90;;;;;;2095285;28;20025;-72
2023/05/21 03:55:19;;;;;;;41.97;30.92;;;12.90;99.90;;;;;;2095405;28;20551;-74
2023/05/21 03:56:21;;;;;;;39.63;30.95;;;12.90;99.90;;;;;;2093550;28;20032;-74
2023/05/21 03:57:22;;;;;;;40.78;31.05;;;12.90;99.90;;;;;;2095506;28;20028;-73
2023/05/21 03:58:23;;;;;;;39.90;31.00;;;12.90;99.90;;;;;;2095108;28;20141;-73
2023/05/21 03:59:24;;;;;;;40.80;31.30;;;12.90;99.90;;;;;;2095388;28;20134;-73
2023/05/21 04:00:25;;;;;;;40.65;30.63;;;13.00;99.90;;;;;;2087346;28;20731;-73
2023/05/21 04:01:27;;;;;;;40.03;30.73;;;13.00;99.90;;;;;;2093570;28;20024;-73
2023/05/21 04:02:27;;;;;;;40.88;31.58;;;13.00;99.90;;;;;;2103839;28;20020;-73
2023/05/21 04:03:28;;;;;;;39.08;30.77;;;13.00;99.90;;;;;;2103521;28;20020;-73
2023/05/21 04:04:29;;;;;;;42.13;31.75;;;13.00;99.90;;;;;;2095232;28;20029;-73
2023/05/21 04:05:30;;;;;;;40.13;31.27;;;13.10;99.90;;;;;;2095435;28;20466;-72
2023/05/21 04:06:31;;;;;;;41.10;31.08;;;13.10;99.90;;;;;;2101911;28;20032;-72
2023/05/21 04:07:32;;;;;;;42.13;31.70;;;13.10;99.90;;;;;;2112254;28;20043;-73
2023/05/21 04:08:35;;;;;;;40.53;31.00;;;13.10;99.90;;;;;;2099737;28;20679;-73
2023/05/21 04:09:35;;;;;;;38.97;29.67;;;13.20;99.90;;;;;;2103925;28;20074;-73
2023/05/21 04:10:36;;;;;;;39.17;29.88;;;13.20;99.90;;;;;;2103421;28;20629;-74
2023/05/21 04:11:37;;;;;;;40.05;30.48;;;13.30;99.90;;;;;;2098574;28;20527;-74
2023/05/21 04:12:37;;;;;;;36.83;29.15;;;13.30;99.90;;;;;;2104249;28;20674;-73
2023/05/21 04:13:38;;;;;;;38.45;30.13;;;13.40;99.90;;;;;;2103138;28;20032;-73
2023/05/21 04:14:38;;;;;;;38.45;29.45;;;13.40;99.90;;;;;;2095226;28;20186;-73
2023/05/21 04:15:39;;;;;;;38.15;29.58;;;13.50;99.90;;;;;;2095235;28;20033;-73
2023/05/21 04:16:42;;;;;;;36.90;29.50;;;13.50;99.90;;;;;;2098037;28;20067;-73
2023/05/21 04:17:44;;;;;;;38.97;30.00;;;13.60;99.90;;;;;;2087530;28;20079;-74
2023/05/21 04:18:46;;;;;;;37.80;29.67;;;13.60;99.90;;;;;;2095323;28;20047;-74
2023/05/21 04:19:48;;;;;;;41.85;30.90;;;13.70;99.90;;;;;;2103625;28;20085;-73
2023/05/21 04:20:49;;;;;;;39.80;29.58;;;13.70;99.90;;;;;;2103491;28;20500;-73
2023/05/21 04:21:50;;;;;;;40.22;30.00;;;13.80;99.90;;;;;;2098422;28;20020;-73
2023/05/21 04:22:52;;;;;;;38.13;29.52;;;13.80;99.90;;;;;;2103489;28;20028;-73
2023/05/21 04:23:52;;;;;;;38.55;29.83;;;13.90;99.90;;;;;;2103796;28;20038;-72
2023/05/21 04:25:09;;;;;;;36.72;29.52;;;13.90;99.90;;;;;;2095290;28;20028;-73
2023/05/21 04:26:12;;;;;;;37.80;28.42;;;14.00;99.90;;;;;;2095163;28;20519;-73
2023/05/21 04:27:15;;;;;;;36.90;29.33;;;14.10;99.90;;;;;;2095184;28;20633;-73
2023/05/21 04:28:19;;;;;;;37.53;29.13;;;14.20;99.90;;;;;;2094919;28;20033;-73
2023/05/21 04:29:21;;;;;;;37.78;29.73;;;14.20;99.90;;;;;;2104407;28;20024;-72
2023/05/21 04:30:23;;;;;;;36.75;27.77;;;14.40;99.90;;;;;;2103364;28;20815;-73
2023/05/21 04:31:24;;;;;;;37.33;28.25;;;14.40;99.90;;;;;;2093026;28;20024;-73
2023/05/21 04:32:27;;;;;;;37.35;29.20;;;14.60;99.90;;;;;;2095321;28;20454;-73
2023/05/21 04:33:29;;;;;;;36.92;28.92;;;14.70;99.90;;;;;;2103550;28;20035;-73
2023/05/21 04:34:32;;;;;;;34.30;27.08;;;14.80;99.90;;;;;;2103567;28;20020;-73
2023/05/21 04:35:34;;;;;;;35.17;27.77;;;15.00;99.90;;;;;;2103875;28;20083;-74
2023/05/21 04:36:34;;;;;;;34.78;27.33;;;15.20;99.90;;;;;;2098874;28;20302;-73
2023/05/21 04:37:35;;;;;;;33.90;27.40;;;15.40;99.90;;;;;;2095364;28;20020;-73
2023/05/21 04:38:37;;;;;;;35.38;27.98;;;15.60;99.90;;;;;;2102965;28;20039;-73
2023/05/21 04:39:39;;;;;;;31.73;26.17;;;15.90;99.90;;;;;;2094723;28;20090;-73
2023/05/21 04:40:40;;;;;;;33.72;27.42;;;16.00;99.90;;;;;;2102626;28;20509;-74
2023/05/21 04:41:41;;;;;;;36.08;27.65;;;16.20;99.90;;;;;;2114347;27;20566;-73
2023/05/21 04:42:42;;;;;;;32.30;26.58;;;16.50;99.90;;;;;;2111805;28;20379;-75
2023/05/21 04:43:43;;;;;;;32.15;26.45;;;16.70;99.90;;;;;;2095540;28;20028;-74
2023/05/21 04:44:45;;;;;;;30.70;25.02;;;16.90;99.90;;;;;;2095111;28;20464;-73
2023/05/21 04:45:46;;;;;;;31.55;26.33;;;17.10;99.90;;;;;;2103113;28;20461;-74
2023/05/21 04:46:47;;;;;;;30.05;24.85;;;17.30;99.90;;;;;;2092871;28;20048;-74
2023/05/21 04:47:48;;;;;;;30.20;24.58;;;17.50;99.90;;;;;;2094674;28;20082;-73
2023/05/21 04:48:51;;;;;;;29.13;23.65;;;17.70;99.90;;;;;;2094103;28;20032;-74
2023/05/21 04:49:52;;;;;;;29.85;24.83;;;17.90;99.90;;;;;;2094849;28;20025;-74
2023/05/21 04:50:53;;;;;;;30.42;23.92;;;18.20;99.90;;;;;;2102661;28;20134;-73
2023/05/21 04:51:53;;;;;;;27.60;23.55;;;18.40;99.90;;;;;;2101322;28;20032;-73
2023/05/21 04:52:54;;;;;;;28.95;23.60;;;18.60;99.90;;;;;;2103401;28;20083;-73
2023/05/21 04:53:56;;;;;;;30.27;24.60;;;18.80;99.90;;;;;;2112489;28;20123;-73
2023/05/21 04:54:57;;;;;;;30.23;25.40;;;18.90;99.90;;;;;;2103329;28;20089;-73
2023/05/21 04:55:58;;;;;;;29.30;24.50;;;19.00;99.90;;;;;;2086484;28;20025;-73
2023/05/21 04:56:58;;;;;;;28.83;23.50;;;19.10;99.90;;;;;;2084665;28;20025;-72
2023/05/21 04:57:59;;;;;;;27.83;24.15;;;19.30;99.90;;;;;;2095180;28;20395;-73
2023/05/21 04:59:00;;;;;;;26.80;23.38;;;19.40;99.90;;;;;;2094541;28;20040;-73
2023/05/21 05:00:02;;;;;;;26.30;22.55;;;19.50;99.90;;;;;;2086757;28;20043;-73
2023/05/21 05:01:09;;;;;;;27.38;22.88;;;19.70;99.90;;;;;;2088003;28;20551;-73
2023/05/21 05:02:10;;;;;;;25.73;22.85;;;19.90;99.90;;;;;;2101510;28;20035;-74
2023/05/21 05:03:11;;;;;;;26.63;22.67;;;20.10;99.90;;;;;;2103172;28;20573;-74
2023/05/21 05:04:11;;;;;;;26.08;23.23;;;20.30;99.90;;;;;;2094853;28;20396;-73
2023/05/21 05:05:12;;;;;;;27.25;22.15;;;20.40;99.90;;;;;;2102623;28;20039;-72
2023/05/21 05:06:12;;;;;;;27.80;22.77;;;20.60;99.90;;;;;;2094962;28;20021;-72
2023/05/21 05:07:14;;;;;;;28.27;23.40;;;20.70;99.90;;;;;;2084351;28;20116;-73
2023/05/21 05:08:15;;;;;;;25.10;22.40;;;20.80;99.90;;;;;;2090885;28;20024;-73
2023/05/21 05:09:15;;;;;;;27.25;22.38;;;20.90;99.90;;;;;;2102950;28;20546;-73
2023/05/21 05:10:16;;;;;;;26.92;22.85;;;21.00;99.90;;;;;;2102983;28;20091;-73
2023/05/21 05:11:18;;;;;;;24.48;21.83;;;21.10;99.90;;;;;;2100849;28;20016;-74
2023/05/21 05:12:18;;;;;;;24.92;21.92;;;21.20;99.90;;;;;;2094966;28;20539;-74
2023/05/21 05:13:19;;;;;;;25.23;22.17;;;21.40;99.90;;;;;;2095438;28;20064;-73
2023/05/21 05:14:19;;;;;;;25.63;22.63;;;21.50;99.90;;;;;;2094862;28;20062;-73
2023/05/21 05:15:20;;;;;;;24.63;21.95;;;21.50;99.90;;;;;;2094571;28;20090;-74